YBRK

Details ICAO YBRK (ROK)
Name Rockhampton
Region Australia
Timezone Australia/Brisbane (UTC+10.0)
Plans Departing 63
Arriving 56
Stats Elevation 34 ft / 10 m (AMSL)
Location -23.378800° 150.473000°
Runways 2
Magnetic Variation 9.200° E
Sunrise 2018-10-20 19:21:51 UTC / 2018-10-21 05:21:51 Local
Sunset 2018-10-21 08:06:05 UTC / 2018-10-21 18:06:05 Local
Advertisement - Login to hide

Runways

ID Width Length Bearing (true/mag) Surface Threshold Overrun Markings Lighting
04 102 ft / 31 m 5,395 ft / 1,644 m 52.34° / 43.14° ASPHALT 0 ft / 0 m 20 ft / 6 m APP EDGE THRESHOLD
15 148 ft / 45 m 8,649 ft / 2,636 m 157.80° / 148.60° ASPHALT 0 ft / 0 m 0 ft / 0 m APP EDGE THRESHOLD
22 102 ft / 31 m 5,395 ft / 1,644 m 232.34° / 223.14° ASPHALT 0 ft / 0 m 0 ft / 0 m APP EDGE THRESHOLD
33 148 ft / 45 m 8,649 ft / 2,636 m 337.80° / 328.60° ASPHALT 0 ft / 0 m 0 ft / 0 m APP EDGE THRESHOLD

Map

Weather


0- 5 10 15 20 25 30 35+ Temperature / °C

Clouds and Precipitation
Forecast for 2018-10-20 18:00 UTC. Updated 6 hours ago

Ground ~20,000 ft ~40,000 ft Winds

METAR

YBRK 202030Z AUTO 16003KT 9999 // NCD 20/18 Q1015 RF00.0/000.0

TAF

TAF YBRK 201721Z 2018/2118 16005KT 9999 SCT020 FM202300 05006KT 9999 FEW035 FM210500 05009KT CAVOK FM211100 04004KT 9999 FEW020

Frequencies

Recorded 128.50 MHz ATIS
Unicom 118.10 MHz CTAF
Ground 121.80 MHz ROCKY GND
Tower 118.10 MHz
Warning: Do not use this data for real-world aviation or navigation. No guarantee of current accuracy is given.